Aswan, Egypt
Current Conditions -  °F | °C
As of 10:00 AM on Thursday 23 Oct 2014 (Local Time) from HESN Reporting Station
Clear Clear  
Wind Chill: 82°   Ceiling: Unl
Heat Index: 82°   Visibility: 6mi
Dew Point: 43°   Wind: 9mph
Humidity: 25%   Direction: 350°N
Pressure: 30.06"   Gusts: NA
Location:  24.08°N, 32.92°E
Report Text: HESN 230800Z 35008KT CAVOK 28/06 Q1018 NOSIG
Loading
Personal Weather Stations






























Interactive Weather Map
Tropical Storm Tracking
New forecast layout! Learn more

10-Day Weather Forecast

Advertisements
Track Severe Weather on mobile